ROMMA est une association bénévole à but non lucratif. Votre soutien est indispensable : ADHERER à ROMMA ou FAIRE un DON

Taninges - (74, Haute-Savoie)

Vallée du Giffre (635 m)   Longitude: 06° 35' 38" E   Latitude: 46° 06' 21" N Station romma n°98
 

Détail journalier du     <<     >>

Température Precipitation Humidité Pression Vent Dir Rafale Dir. rafale Ensol.
Heure (°C) (mm) (%) (hPa) (km/h) (km/h) (min)
01:00 14.5095101702ENE0
02:00 14.1096101703ENE0
03:00 14.4096101703ENE0
04:00 14.1097101703ENE0
05:00 14.1097101603ENE0
06:00 14.409710161ENE3ENE0
07:00 14.3097101603ENE0
08:00 14.70.29710151ESE5SE0
09:00 15.409810151ESE5SE5
10:00 18.309710132OSO10OSO60
11:00 21.807910126SO15O60
12:00 22.707710116SE23SO60
13:00 23.7074101012OSO24OSO60
14:00 24.8069101013OSO29O60
15:00 24.0069101010SO23SO35
16:00 26.506310099O23O50
17:00 24.806410109ONO23OSO15
18:00 19.73.688101313ONO40ONO5
19:00 19.608710134OSO11SE10
20:00 18.908710143OSO11OSO0
21:00 18.12.29110152ENE8SE0
22:00 17.50.89410152E6SE0
23:00 17.209410152O8NE0
minuit 17.109510151OSO8OSO0

Graphique du 11-08-2019

 

Serveur OMMA